Time;durP1;ratioP1;P1;durP2;ratioP2;P2;SDS_P1;SDS_P2;PMS_P1;PMS_P2;Temp;Humidity;BMP_temperature;BMP_pressure;BME280_temperature;BME280_humidity;BME280_pressure;Samples;Min_cycle;Max_cycle;Signal;HPM_P1;HPM_P2
2021/07/24 00:00:35;;;;;;;13.50;5.17;;;;;;;;;;3580932;40;20290;-65
2021/07/24 00:03:00;;;;;;;9.70;5.10;;;;;;;;;;3579488;40;20043;-66
2021/07/24 00:05:25;;;;;;;11.17;5.70;;;;;;;;;;3576022;40;20033;-66
2021/07/24 00:07:50;;;;;;;7.60;4.97;;;;;;;;;;3574883;40;20045;-65
2021/07/24 00:10:16;;;;;;;10.80;5.83;;;;;;;;;;3578219;40;20032;-65
2021/07/24 00:12:41;;;;;;;13.53;5.07;;;;;;;;;;3577252;40;20271;-65
2021/07/24 00:15:06;;;;;;;8.48;5.53;;;;;;;;;;3579903;40;20368;-65
2021/07/24 00:17:32;;;;;;;13.60;5.57;;;;;;;;;;3576260;40;20109;-65
2021/07/24 00:19:57;;;;;;;8.40;5.43;;;;;;;;;;3576958;40;20029;-58
2021/07/24 00:22:22;;;;;;;11.00;5.40;;;;;;;;;;3577541;40;20046;-58
2021/07/24 00:24:48;;;;;;;12.57;6.13;;;;;;;;;;3577194;40;20036;-58
2021/07/24 00:27:13;;;;;;;12.30;5.38;;;;;;;;;;3577129;40;20059;-59
2021/07/24 00:29:39;;;;;;;12.50;6.00;;;;;;;;;;3575702;40;20630;-66
2021/07/24 00:32:04;;;;;;;14.10;5.57;;;;;;;;;;3576335;40;20035;-66
2021/07/24 00:34:30;;;;;;;9.48;5.45;;;;;;;;;;3579510;40;20045;-66
2021/07/24 00:36:56;;;;;;;12.87;6.40;;;;;;;;;;3577236;40;20032;-66
2021/07/24 00:39:22;;;;;;;15.52;5.95;;;;;;;;;;3576464;40;20114;-66
2021/07/24 00:41:50;;;;;;;11.63;6.53;;;;;;;;;;3575936;40;20041;-66
2021/07/24 00:44:16;;;;;;;11.30;5.50;;;;;;;;;;3578653;40;20057;-66
2021/07/24 00:46:41;;;;;;;11.68;5.70;;;;;;;;;;3575938;40;20163;-66
2021/07/24 00:49:07;;;;;;;9.67;5.87;;;;;;;;;;3580011;40;20072;-66
2021/07/24 00:51:44;;;;;;;12.48;6.03;;;;;;;;;;3576441;40;20040;-68
2021/07/24 00:54:09;;;;;;;9.25;6.22;;;;;;;;;;3576912;40;20765;-66
2021/07/24 00:56:34;;;;;;;10.93;6.40;;;;;;;;;;3575674;40;20031;-67
2021/07/24 00:58:59;;;;;;;10.80;5.77;;;;;;;;;;3577574;40;20037;-67
2021/07/24 01:01:25;;;;;;;11.50;5.93;;;;;;;;;;3577456;40;20317;-66
2021/07/24 01:03:50;;;;;;;12.10;6.55;;;;;;;;;;3576114;40;20376;-66
2021/07/24 01:06:15;;;;;;;10.43;6.17;;;;;;;;;;3576873;40;20421;-66
2021/07/24 01:08:41;;;;;;;11.93;6.68;;;;;;;;;;3576619;40;20400;-66
2021/07/24 01:11:06;;;;;;;11.03;6.30;;;;;;;;;;3576089;40;20032;-66
2021/07/24 01:13:32;;;;;;;12.95;6.22;;;;;;;;;;3575525;40;20040;-67
2021/07/24 01:15:58;;;;;;;11.85;6.68;;;;;;;;;;3577877;40;20134;-67
2021/07/24 01:18:29;;;;;;;12.23;6.32;;;;;;;;;;3578750;40;20057;-67
2021/07/24 01:20:55;;;;;;;10.05;6.50;;;;;;;;;;3575792;40;20044;-66
2021/07/24 01:23:22;;;;;;;12.07;6.53;;;;;;;;;;3579127;40;20032;-67
2021/07/24 01:25:48;;;;;;;14.23;6.22;;;;;;;;;;3577582;40;20084;-67
2021/07/24 01:28:14;;;;;;;9.68;6.13;;;;;;;;;;3575953;40;20394;-66
2021/07/24 01:30:41;;;;;;;12.90;6.50;;;;;;;;;;3578142;40;20025;-66
2021/07/24 01:33:07;;;;;;;14.25;6.40;;;;;;;;;;3568701;40;20041;-67
2021/07/24 01:35:32;;;;;;;13.47;6.80;;;;;;;;;;3575265;40;20049;-67
2021/07/24 01:37:57;;;;;;;15.00;6.70;;;;;;;;;;3565919;40;20616;-66
2021/07/24 01:40:23;;;;;;;11.70;6.80;;;;;;;;;;3578091;40;20036;-67
2021/07/24 01:42:48;;;;;;;12.73;7.80;;;;;;;;;;3579686;40;20033;-66
2021/07/24 01:45:13;;;;;;;11.05;6.28;;;;;;;;;;3577530;40;21059;-66
2021/07/24 01:47:39;;;;;;;12.85;7.47;;;;;;;;;;3575458;40;20471;-66
2021/07/24 01:52:55;;;;;;;12.73;6.70;;;;;;;;;;3575420;40;20048;-66
2021/07/24 01:55:20;;;;;;;9.57;6.90;;;;;;;;;;3577678;40;20367;-66
2021/07/24 01:57:55;;;;;;;10.77;6.53;;;;;;;;;;3578640;40;20068;-66
2021/07/24 02:00:23;;;;;;;13.88;6.47;;;;;;;;;;3567003;40;20096;-66
2021/07/24 02:02:58;;;;;;;9.75;6.53;;;;;;;;;;3578446;40;20437;-66
2021/07/24 02:05:44;;;;;;;13.68;6.50;;;;;;;;;;3576654;40;20056;-66
2021/07/24 02:08:09;;;;;;;13.35;7.35;;;;;;;;;;3578218;40;20033;-66
2021/07/24 02:10:36;;;;;;;17.75;6.75;;;;;;;;;;3578163;40;20097;-66
2021/07/24 02:13:01;;;;;;;12.10;6.83;;;;;;;;;;3576833;40;20031;-66
2021/07/24 02:15:28;;;;;;;12.43;6.78;;;;;;;;;;3578311;40;20040;-66
2021/07/24 02:17:55;;;;;;;11.73;6.65;;;;;;;;;;3579271;40;20342;-66
2021/07/24 02:20:20;;;;;;;23.00;6.90;;;;;;;;;;3576683;40;20422;-66
2021/07/24 02:22:45;;;;;;;11.97;7.23;;;;;;;;;;3576770;40;20029;-66
2021/07/24 02:25:11;;;;;;;11.60;7.10;;;;;;;;;;3578115;40;20843;-66
2021/07/24 02:27:38;;;;;;;13.63;6.63;;;;;;;;;;3576771;40;20033;-66
2021/07/24 02:30:08;;;;;;;11.90;6.22;;;;;;;;;;3578649;40;20400;-66
2021/07/24 02:32:34;;;;;;;11.97;7.07;;;;;;;;;;3568558;40;20029;-66
2021/07/24 02:34:59;;;;;;;13.32;7.03;;;;;;;;;;3575991;40;20287;-66
2021/07/24 02:37:25;;;;;;;11.75;7.22;;;;;;;;;;3577795;40;20033;-67
2021/07/24 02:39:50;;;;;;;12.52;7.10;;;;;;;;;;3579482;40;20493;-66
2021/07/24 02:42:16;;;;;;;17.58;7.25;;;;;;;;;;3579762;40;20025;-67
2021/07/24 02:44:42;;;;;;;14.88;7.35;;;;;;;;;;3579897;40;20048;-66
2021/07/24 02:47:07;;;;;;;11.83;6.67;;;;;;;;;;3576821;40;20039;-66
2021/07/24 02:49:34;;;;;;;11.90;7.00;;;;;;;;;;3578221;40;20287;-67
2021/07/24 02:52:01;;;;;;;11.55;7.43;;;;;;;;;;3578276;40;20049;-66
2021/07/24 02:54:27;;;;;;;16.00;7.35;;;;;;;;;;3580243;40;20028;-59
2021/07/24 02:56:55;;;;;;;14.10;7.22;;;;;;;;;;3578767;40;20036;-59
2021/07/24 02:59:21;;;;;;;14.55;7.35;;;;;;;;;;3578996;40;20025;-59
2021/07/24 03:01:46;;;;;;;12.57;7.82;;;;;;;;;;3577879;40;20130;-59
2021/07/24 03:04:11;;;;;;;11.17;7.57;;;;;;;;;;3578759;40;20040;-59
2021/07/24 03:06:36;;;;;;;13.10;7.38;;;;;;;;;;3579064;40;20021;-59
2021/07/24 03:09:03;;;;;;;11.13;7.23;;;;;;;;;;3577433;40;20033;-59
2021/07/24 03:11:28;;;;;;;14.43;7.75;;;;;;;;;;3576823;40;20248;-59
2021/07/24 03:13:54;;;;;;;11.73;7.23;;;;;;;;;;3580946;40;20087;-59
2021/07/24 03:16:19;;;;;;;12.73;8.20;;;;;;;;;;3576367;40;20930;-59
2021/07/24 03:18:44;;;;;;;13.00;7.77;;;;;;;;;;3576034;40;20029;-59
2021/07/24 03:21:09;;;;;;;15.03;8.50;;;;;;;;;;3578192;40;20290;-59
2021/07/24 03:23:34;;;;;;;13.80;9.13;;;;;;;;;;3578944;40;20035;-59
2021/07/24 03:26:00;;;;;;;16.47;8.97;;;;;;;;;;3580486;40;20298;-59
2021/07/24 03:28:25;;;;;;;13.67;8.43;;;;;;;;;;3579268;40;20025;-59
2021/07/24 03:30:50;;;;;;;12.77;8.47;;;;;;;;;;3577266;40;20029;-59
2021/07/24 03:33:15;;;;;;;11.37;8.03;;;;;;;;;;3578355;40;20450;-59
2021/07/24 03:35:40;;;;;;;16.67;8.37;;;;;;;;;;3576357;40;20723;-59
2021/07/24 03:38:06;;;;;;;13.27;8.23;;;;;;;;;;3580015;40;20586;-60
2021/07/24 03:40:31;;;;;;;13.90;8.13;;;;;;;;;;3576278;40;20028;-59
2021/07/24 03:42:56;;;;;;;12.27;7.60;;;;;;;;;;3577365;40;20061;-59
2021/07/24 03:45:21;;;;;;;13.00;8.17;;;;;;;;;;3578431;40;20259;-59
2021/07/24 03:47:46;;;;;;;17.63;8.47;;;;;;;;;;3577846;40;20032;-59
2021/07/24 03:50:12;;;;;;;15.13;8.40;;;;;;;;;;3578810;40;20259;-59
2021/07/24 03:52:37;;;;;;;12.73;8.10;;;;;;;;;;3577682;40;20624;-59
2021/07/24 03:55:02;;;;;;;11.35;7.82;;;;;;;;;;3578974;40;20032;-59
2021/07/24 03:57:27;;;;;;;19.70;8.07;;;;;;;;;;3577731;40;20049;-60
2021/07/24 03:59:53;;;;;;;13.03;7.57;;;;;;;;;;3577455;40;20644;-59
2021/07/24 04:02:23;;;;;;;14.60;7.63;;;;;;;;;;3580307;40;20402;-59
2021/07/24 04:04:51;;;;;;;11.98;8.00;;;;;;;;;;3577764;40;20033;-59
2021/07/24 04:07:17;;;;;;;12.18;7.43;;;;;;;;;;3578537;40;20017;-60
2021/07/24 04:09:42;;;;;;;14.27;8.25;;;;;;;;;;3580359;40;20039;-59
2021/07/24 04:12:07;;;;;;;14.60;7.77;;;;;;;;;;3579831;40;20454;-59
2021/07/24 04:14:32;;;;;;;11.17;7.53;;;;;;;;;;3577875;40;20039;-59
2021/07/24 04:16:58;;;;;;;14.97;7.30;;;;;;;;;;3578957;40;20402;-59
2021/07/24 04:19:23;;;;;;;10.47;7.20;;;;;;;;;;3579019;40;20106;-59
2021/07/24 04:21:48;;;;;;;13.00;6.97;;;;;;;;;;3577048;40;20033;-59
2021/07/24 04:24:15;;;;;;;12.27;7.40;;;;;;;;;;3579974;40;20028;-59
2021/07/24 04:26:40;;;;;;;15.77;7.40;;;;;;;;;;3578487;40;20063;-59
2021/07/24 04:29:09;;;;;;;11.53;7.93;;;;;;;;;;3579144;40;20406;-59
2021/07/24 04:31:34;;;;;;;13.32;7.22;;;;;;;;;;3577947;40;20057;-59
2021/07/24 04:33:59;;;;;;;12.67;8.53;;;;;;;;;;3578881;40;20349;-60
2021/07/24 04:36:24;;;;;;;15.53;8.57;;;;;;;;;;3577251;40;20263;-59
2021/07/24 04:38:49;;;;;;;17.03;10.53;;;;;;;;;;3579153;40;20477;-59
2021/07/24 04:41:15;;;;;;;15.48;10.20;;;;;;;;;;3579875;40;20028;-59
2021/07/24 04:43:40;;;;;;;17.53;11.17;;;;;;;;;;3580059;40;20542;-59
2021/07/24 04:46:07;;;;;;;18.15;11.63;;;;;;;;;;3578303;40;20350;-59
2021/07/24 04:48:32;;;;;;;20.65;13.00;;;;;;;;;;3582045;40;20383;-60
2021/07/24 04:50:58;;;;;;;19.98;11.77;;;;;;;;;;3577426;40;20122;-59
2021/07/24 04:53:23;;;;;;;19.77;10.80;;;;;;;;;;3579387;40;20033;-59
2021/07/24 04:55:48;;;;;;;19.42;11.75;;;;;;;;;;3577845;40;20032;-59
2021/07/24 04:58:13;;;;;;;17.80;11.87;;;;;;;;;;3580512;40;20029;-59
2021/07/24 05:00:39;;;;;;;23.27;12.37;;;;;;;;;;3576130;40;20247;-60
2021/07/24 05:03:04;;;;;;;19.50;11.27;;;;;;;;;;3578394;40;20044;-59
2021/07/24 05:05:29;;;;;;;17.65;11.18;;;;;;;;;;3577248;40;20159;-59
2021/07/24 05:07:54;;;;;;;14.23;10.17;;;;;;;;;;3577315;40;20022;-60
2021/07/24 05:10:19;;;;;;;19.53;12.43;;;;;;;;;;3575517;40;20340;-61
2021/07/24 05:12:45;;;;;;;20.00;11.90;;;;;;;;;;3578741;40;20032;-60
2021/07/24 05:15:10;;;;;;;27.50;13.93;;;;;;;;;;3576935;40;20028;-60
2021/07/24 05:17:35;;;;;;;19.88;12.35;;;;;;;;;;3578705;40;20283;-60
2021/07/24 05:20:01;;;;;;;19.45;12.40;;;;;;;;;;3578015;40;20048;-60
2021/07/24 05:22:26;;;;;;;18.93;11.83;;;;;;;;;;3579351;40;20033;-59
2021/07/24 05:24:51;;;;;;;23.70;13.70;;;;;;;;;;3578555;40;20044;-59
2021/07/24 05:27:16;;;;;;;22.47;13.23;;;;;;;;;;3580150;40;21075;-60
2021/07/24 05:29:42;;;;;;;22.15;13.57;;;;;;;;;;3576063;40;20025;-60
2021/07/24 05:32:07;;;;;;;22.33;13.53;;;;;;;;;;3580633;40;20258;-59
2021/07/24 05:34:32;;;;;;;21.90;13.47;;;;;;;;;;3578388;40;20423;-60
2021/07/24 05:36:57;;;;;;;21.50;13.97;;;;;;;;;;3579348;40;20039;-59
2021/07/24 05:39:22;;;;;;;25.92;15.88;;;;;;;;;;3575121;40;20022;-59
2021/07/24 05:41:48;;;;;;;22.80;14.03;;;;;;;;;;3574478;40;20811;-60
2021/07/24 05:44:17;;;;;;;27.98;16.38;;;;;;;;;;3579056;40;20032;-60
2021/07/24 05:46:42;;;;;;;25.65;15.65;;;;;;;;;;3576615;40;20037;-65
2021/07/24 05:49:07;;;;;;;26.70;15.73;;;;;;;;;;3577808;40;20126;-66
2021/07/24 05:51:33;;;;;;;24.40;15.80;;;;;;;;;;3578733;40;20047;-67
2021/07/24 05:53:58;;;;;;;27.88;16.60;;;;;;;;;;3578240;40;20295;-67
2021/07/24 05:56:23;;;;;;;28.63;15.20;;;;;;;;;;3576526;40;20037;-66
2021/07/24 05:58:48;;;;;;;28.00;15.45;;;;;;;;;;3577692;40;20243;-67
2021/07/24 06:01:14;;;;;;;24.03;15.87;;;;;;;;;;3578118;40;20146;-67
2021/07/24 06:03:39;;;;;;;25.17;15.70;;;;;;;;;;3582519;40;20325;-67
2021/07/24 06:06:04;;;;;;;25.67;14.67;;;;;;;;;;3578517;40;20060;-66
2021/07/24 06:08:30;;;;;;;25.67;15.00;;;;;;;;;;3572392;40;20040;-66
2021/07/24 06:10:55;;;;;;;25.92;15.88;;;;;;;;;;3569186;40;20329;-66
2021/07/24 06:13:23;;;;;;;24.70;14.77;;;;;;;;;;3579825;40;20036;-67
2021/07/24 06:15:48;;;;;;;28.10;15.38;;;;;;;;;;3581921;40;20720;-67
2021/07/24 06:18:14;;;;;;;27.33;14.73;;;;;;;;;;3576096;40;20036;-66
2021/07/24 06:20:39;;;;;;;28.03;14.63;;;;;;;;;;3579943;40;20279;-67
2021/07/24 06:23:04;;;;;;;27.60;15.13;;;;;;;;;;3579176;40;20251;-66
2021/07/24 06:25:29;;;;;;;23.13;15.63;;;;;;;;;;3580442;40;20044;-66
2021/07/24 06:27:55;;;;;;;23.47;14.47;;;;;;;;;;3580476;40;20304;-66
2021/07/24 06:30:20;;;;;;;24.27;14.87;;;;;;;;;;3578046;40;20040;-66
2021/07/24 06:32:45;;;;;;;24.17;14.17;;;;;;;;;;3579452;40;20294;-60
2021/07/24 06:35:10;;;;;;;26.40;14.73;;;;;;;;;;3579242;40;20267;-60
2021/07/24 06:37:35;;;;;;;27.80;14.83;;;;;;;;;;3579588;40;20125;-60
2021/07/24 06:40:01;;;;;;;27.10;15.30;;;;;;;;;;3576673;40;20172;-60
2021/07/24 06:42:26;;;;;;;27.07;13.93;;;;;;;;;;3579941;40;20076;-65
2021/07/24 06:44:51;;;;;;;25.93;14.93;;;;;;;;;;3577590;40;20031;-66
2021/07/24 06:47:16;;;;;;;28.43;14.50;;;;;;;;;;3578906;40;20612;-66
2021/07/24 06:49:42;;;;;;;28.17;15.90;;;;;;;;;;3580098;40;20052;-60
2021/07/24 06:52:08;;;;;;;22.45;15.23;;;;;;;;;;3580303;40;20352;-60
2021/07/24 06:54:33;;;;;;;22.40;14.90;;;;;;;;;;3577901;40;20036;-60
2021/07/24 06:56:58;;;;;;;25.73;14.37;;;;;;;;;;3576598;40;20214;-59
2021/07/24 06:59:23;;;;;;;26.60;14.57;;;;;;;;;;3578552;40;20263;-60
2021/07/24 07:01:49;;;;;;;29.83;14.50;;;;;;;;;;3580165;40;20024;-59
2021/07/24 07:04:14;;;;;;;27.80;14.70;;;;;;;;;;3579609;40;20096;-60
2021/07/24 07:06:39;;;;;;;25.43;14.73;;;;;;;;;;3579526;40;20051;-60
2021/07/24 07:09:04;;;;;;;30.30;14.80;;;;;;;;;;3579748;40;20025;-59
2021/07/24 07:11:30;;;;;;;25.53;14.33;;;;;;;;;;3578571;40;20025;-60
2021/07/24 07:13:56;;;;;;;22.70;13.47;;;;;;;;;;3580443;40;20382;-60
2021/07/24 07:16:21;;;;;;;23.58;14.20;;;;;;;;;;3582157;40;20470;-60
2021/07/24 07:18:46;;;;;;;29.00;13.20;;;;;;;;;;3577568;40;20021;-60
2021/07/24 07:21:11;;;;;;;22.73;12.93;;;;;;;;;;3577940;40;20259;-60
2021/07/24 07:23:37;;;;;;;24.37;13.77;;;;;;;;;;3578086;40;20025;-60
2021/07/24 07:26:02;;;;;;;31.07;14.70;;;;;;;;;;3578815;40;20267;-60
2021/07/24 07:28:27;;;;;;;24.53;14.57;;;;;;;;;;3579082;40;20025;-60
2021/07/24 07:30:52;;;;;;;23.25;14.40;;;;;;;;;;3576544;40;20258;-60
2021/07/24 07:33:18;;;;;;;28.20;14.27;;;;;;;;;;3577843;40;20032;-60
2021/07/24 07:35:43;;;;;;;21.03;13.07;;;;;;;;;;3581438;40;20771;-60
2021/07/24 07:38:08;;;;;;;20.15;12.82;;;;;;;;;;3580176;40;20488;-60
2021/07/24 07:40:34;;;;;;;22.23;13.60;;;;;;;;;;3581784;40;20036;-60
2021/07/24 07:43:03;;;;;;;24.03;12.87;;;;;;;;;;3579509;40;20262;-60
2021/07/24 07:45:28;;;;;;;22.48;12.43;;;;;;;;;;3578822;40;20832;-60
2021/07/24 07:47:53;;;;;;;22.27;12.53;;;;;;;;;;3581544;40;20076;-59
2021/07/24 07:50:18;;;;;;;25.45;13.20;;;;;;;;;;3580105;40;20061;-59
2021/07/24 07:52:44;;;;;;;26.13;12.63;;;;;;;;;;3579728;40;20041;-61
2021/07/24 07:55:09;;;;;;;25.23;12.70;;;;;;;;;;3580716;40;20202;-64
2021/07/24 07:57:34;;;;;;;20.27;12.80;;;;;;;;;;3575768;40;20280;-64
2021/07/24 07:59:59;;;;;;;29.00;14.83;;;;;;;;;;3580567;40;20183;-64
2021/07/24 08:02:25;;;;;;;25.48;12.48;;;;;;;;;;3581095;40;20037;-64
2021/07/24 08:04:50;;;;;;;28.67;16.53;;;;;;;;;;3579170;40;20029;-65
2021/07/24 08:07:16;;;;;;;26.30;14.27;;;;;;;;;;3577592;40;20805;-64
2021/07/24 08:09:41;;;;;;;22.25;14.85;;;;;;;;;;3580048;40;20069;-67
2021/07/24 08:12:06;;;;;;;23.20;12.83;;;;;;;;;;3578100;40;20033;-64
2021/07/24 08:14:31;;;;;;;23.60;12.60;;;;;;;;;;3579707;40;20083;-64
2021/07/24 08:16:57;;;;;;;20.73;12.33;;;;;;;;;;3577646;40;20037;-64
2021/07/24 08:19:22;;;;;;;23.13;12.20;;;;;;;;;;3581276;40;20263;-64
2021/07/24 08:21:47;;;;;;;22.70;12.87;;;;;;;;;;3578427;40;20126;-64
2021/07/24 08:24:13;;;;;;;22.77;12.53;;;;;;;;;;3580591;40;20052;-64
2021/07/24 08:26:38;;;;;;;20.55;12.18;;;;;;;;;;3579455;40;20100;-65
2021/07/24 08:29:03;;;;;;;19.67;12.53;;;;;;;;;;3580891;40;20025;-64
2021/07/24 08:31:29;;;;;;;23.00;12.20;;;;;;;;;;3579418;40;20043;-64
2021/07/24 08:33:54;;;;;;;30.83;13.37;;;;;;;;;;3578349;40;20035;-64
2021/07/24 08:36:19;;;;;;;28.57;18.17;;;;;;;;;;3579083;40;20661;-64
2021/07/24 08:38:44;;;;;;;25.70;14.93;;;;;;;;;;3579287;40;20025;-64
2021/07/24 08:41:09;;;;;;;19.83;11.98;;;;;;;;;;3579334;40;20064;-64
2021/07/24 08:43:35;;;;;;;24.97;11.77;;;;;;;;;;3578483;40;20036;-64
2021/07/24 08:46:00;;;;;;;23.53;12.20;;;;;;;;;;3578916;40;20389;-67
2021/07/24 08:48:25;;;;;;;20.63;12.53;;;;;;;;;;3576619;40;20333;-67
2021/07/24 08:50:50;;;;;;;18.65;10.88;;;;;;;;;;3578069;40;20036;-67
2021/07/24 08:53:16;;;;;;;17.07;11.47;;;;;;;;;;3576059;40;20139;-67
2021/07/24 08:55:42;;;;;;;18.90;11.52;;;;;;;;;;3577567;40;20749;-67
2021/07/24 08:58:10;;;;;;;17.73;11.05;;;;;;;;;;3576768;40;20013;-67
2021/07/24 09:00:35;;;;;;;19.98;11.30;;;;;;;;;;3579429;40;20025;-68
2021/07/24 09:03:00;;;;;;;22.37;12.77;;;;;;;;;;3575992;40;20044;-65
2021/07/24 09:05:26;;;;;;;20.77;12.83;;;;;;;;;;3578215;40;20394;-65
2021/07/24 09:07:51;;;;;;;20.03;10.30;;;;;;;;;;3576355;40;20019;-65
2021/07/24 09:10:16;;;;;;;19.30;11.00;;;;;;;;;;3577770;40;20046;-65
2021/07/24 09:12:42;;;;;;;20.15;10.63;;;;;;;;;;3577154;40;20039;-65
2021/07/24 09:15:07;;;;;;;14.53;10.47;;;;;;;;;;3576728;40;20033;-66
2021/07/24 09:17:32;;;;;;;18.20;10.37;;;;;;;;;;3574518;40;20055;-64
2021/07/24 09:19:57;;;;;;;18.33;10.30;;;;;;;;;;3577840;40;20036;-66
2021/07/24 09:22:23;;;;;;;32.40;15.50;;;;;;;;;;3575739;40;20059;-65
2021/07/24 09:24:48;;;;;;;21.57;12.37;;;;;;;;;;3576131;40;20487;-65
2021/07/24 09:27:13;;;;;;;26.97;14.57;;;;;;;;;;3574368;40;20402;-66
2021/07/24 09:29:39;;;;;;;23.63;11.43;;;;;;;;;;3576833;40;20310;-65
2021/07/24 09:32:05;;;;;;;18.55;10.32;;;;;;;;;;3575875;40;20032;-65
2021/07/24 09:34:30;;;;;;;19.50;10.77;;;;;;;;;;3578524;40;20417;-65
2021/07/24 09:36:55;;;;;;;17.43;10.70;;;;;;;;;;3575682;40;20085;-66
2021/07/24 09:39:20;;;;;;;16.60;10.53;;;;;;;;;;3576532;40;20040;-66
2021/07/24 09:41:46;;;;;;;25.80;11.33;;;;;;;;;;3576739;40;20020;-65
2021/07/24 09:44:11;;;;;;;15.27;10.00;;;;;;;;;;3576124;40;20129;-66
2021/07/24 09:46:36;;;;;;;17.30;9.47;;;;;;;;;;3579021;40;20044;-65
2021/07/24 09:49:01;;;;;;;22.63;10.60;;;;;;;;;;3577373;40;20025;-65
2021/07/24 09:51:26;;;;;;;18.77;9.10;;;;;;;;;;3576525;40;20091;-65
2021/07/24 09:53:52;;;;;;;18.87;10.37;;;;;;;;;;3578345;40;20048;-65
2021/07/24 09:56:17;;;;;;;16.63;10.63;;;;;;;;;;3577757;40;20032;-65
2021/07/24 09:58:42;;;;;;;22.50;13.02;;;;;;;;;;3574720;40;20025;-65
2021/07/24 10:01:08;;;;;;;14.13;10.33;;;;;;;;;;3577787;40;20032;-65
2021/07/24 10:03:35;;;;;;;15.80;10.17;;;;;;;;;;3577374;40;20021;-65
2021/07/24 10:06:01;;;;;;;16.80;11.02;;;;;;;;;;3574926;40;20681;-66
2021/07/24 10:08:26;;;;;;;25.20;15.85;;;;;;;;;;3576501;40;20056;-64
2021/07/24 10:10:52;;;;;;;21.50;12.27;;;;;;;;;;3575098;40;20352;-64
2021/07/24 10:13:17;;;;;;;19.07;10.70;;;;;;;;;;3576159;40;20029;-64
2021/07/24 10:15:42;;;;;;;15.97;10.33;;;;;;;;;;3577281;40;20402;-65
2021/07/24 10:18:08;;;;;;;16.23;9.25;;;;;;;;;;3575201;40;20028;-64
2021/07/24 10:20:33;;;;;;;18.47;10.00;;;;;;;;;;3578021;40;20034;-65
2021/07/24 10:22:58;;;;;;;18.30;9.43;;;;;;;;;;3577055;40;20021;-65
2021/07/24 10:25:23;;;;;;;15.30;9.50;;;;;;;;;;3579322;40;20040;-67
2021/07/24 10:27:49;;;;;;;24.67;10.67;;;;;;;;;;3575693;40;20264;-66
2021/07/24 10:30:14;;;;;;;18.27;11.47;;;;;;;;;;3574694;40;20337;-64
2021/07/24 10:32:39;;;;;;;18.33;10.70;;;;;;;;;;3578755;40;20511;-65
2021/07/24 10:35:04;;;;;;;24.03;13.63;;;;;;;;;;3576869;40;20029;-66
2021/07/24 10:37:31;;;;;;;19.33;10.23;;;;;;;;;;3575425;40;20157;-65
2021/07/24 10:39:56;;;;;;;17.08;9.90;;;;;;;;;;3577448;40;20036;-65
2021/07/24 10:42:21;;;;;;;21.67;9.67;;;;;;;;;;3574619;40;20040;-67
2021/07/24 10:44:47;;;;;;;20.20;9.73;;;;;;;;;;3575322;40;20032;-68
2021/07/24 10:47:14;;;;;;;18.73;9.82;;;;;;;;;;3576247;40;20403;-59
2021/07/24 10:49:39;;;;;;;15.70;9.40;;;;;;;;;;3574127;40;20037;-58
2021/07/24 10:52:05;;;;;;;14.40;9.37;;;;;;;;;;3576621;40;20024;-58
2021/07/24 10:54:30;;;;;;;15.02;9.68;;;;;;;;;;3574670;40;20024;-58
2021/07/24 10:56:55;;;;;;;15.10;9.57;;;;;;;;;;3575205;40;20123;-58
2021/07/24 10:59:21;;;;;;;20.27;9.73;;;;;;;;;;3577807;40;20354;-58
2021/07/24 11:01:46;;;;;;;14.67;8.70;;;;;;;;;;3576092;40;20025;-65
2021/07/24 11:04:11;;;;;;;15.37;9.43;;;;;;;;;;3577229;40;20031;-65
2021/07/24 11:06:36;;;;;;;15.37;9.90;;;;;;;;;;3576425;40;20033;-66
2021/07/24 11:09:02;;;;;;;18.30;9.67;;;;;;;;;;3575348;40;20088;-66
2021/07/24 11:11:27;;;;;;;22.50;9.77;;;;;;;;;;3577385;40;20106;-66
2021/07/24 11:13:52;;;;;;;18.33;9.27;;;;;;;;;;3571302;40;20024;-65
2021/07/24 11:16:17;;;;;;;14.83;9.03;;;;;;;;;;3569933;40;20661;-65
2021/07/24 11:18:42;;;;;;;17.33;9.37;;;;;;;;;;3574783;40;20536;-66
2021/07/24 11:21:08;;;;;;;16.00;10.73;;;;;;;;;;3576413;40;20709;-66
2021/07/24 11:23:33;;;;;;;17.57;10.60;;;;;;;;;;3566734;40;20048;-66
2021/07/24 11:25:58;;;;;;;15.00;10.30;;;;;;;;;;3577901;40;20743;-66
2021/07/24 11:28:23;;;;;;;37.40;19.70;;;;;;;;;;3578465;40;20039;-66
2021/07/24 11:30:48;;;;;;;35.47;19.70;;;;;;;;;;3576177;40;20396;-66
2021/07/24 11:33:14;;;;;;;22.00;12.40;;;;;;;;;;3575654;40;20805;-65
2021/07/24 11:35:39;;;;;;;18.77;11.80;;;;;;;;;;3576784;40;20065;-59
2021/07/24 11:38:04;;;;;;;15.40;9.77;;;;;;;;;;3577938;40;20037;-59
2021/07/24 11:40:29;;;;;;;14.43;9.47;;;;;;;;;;3577922;40;20131;-59
2021/07/24 11:42:55;;;;;;;15.87;9.30;;;;;;;;;;3576978;40;20267;-59
2021/07/24 11:45:20;;;;;;;15.80;9.07;;;;;;;;;;3575672;40;20040;-59
2021/07/24 11:47:45;;;;;;;14.43;9.27;;;;;;;;;;3576122;40;20092;-59
2021/07/24 11:50:10;;;;;;;13.47;8.73;;;;;;;;;;3574429;40;20029;-59
2021/07/24 11:52:35;;;;;;;15.70;8.93;;;;;;;;;;3577615;40;20024;-59
2021/07/24 11:55:01;;;;;;;16.80;9.17;;;;;;;;;;3575977;40;20401;-59
2021/07/24 11:57:26;;;;;;;14.83;8.67;;;;;;;;;;3577416;40;20085;-59
2021/07/24 11:59:51;;;;;;;14.10;8.97;;;;;;;;;;3576133;40;20518;-60
2021/07/24 12:02:16;;;;;;;10.27;8.03;;;;;;;;;;3575501;40;20107;-61
2021/07/24 12:04:41;;;;;;;17.77;10.03;;;;;;;;;;3577178;40;20037;-60
2021/07/24 12:07:07;;;;;;;17.13;8.87;;;;;;;;;;3574208;40;20040;-59
2021/07/24 12:09:32;;;;;;;14.33;9.00;;;;;;;;;;3576860;40;20031;-59
2021/07/24 12:11:57;;;;;;;15.13;9.50;;;;;;;;;;3569726;40;20110;-60
2021/07/24 12:14:22;;;;;;;16.23;9.60;;;;;;;;;;3576700;40;20107;-60
2021/07/24 12:16:48;;;;;;;15.60;8.57;;;;;;;;;;3575638;40;20512;-61
2021/07/24 12:19:13;;;;;;;12.97;8.50;;;;;;;;;;3578204;40;20025;-60
2021/07/24 12:21:39;;;;;;;15.82;8.45;;;;;;;;;;3575692;40;20206;-60
2021/07/24 12:24:04;;;;;;;15.43;8.93;;;;;;;;;;3577941;40;20512;-60
2021/07/24 12:26:31;;;;;;;13.63;9.27;;;;;;;;;;3580269;40;20811;-60
2021/07/24 12:28:57;;;;;;;17.02;8.77;;;;;;;;;;3577457;40;20047;-60
2021/07/24 12:31:22;;;;;;;21.38;8.75;;;;;;;;;;3577516;40;20632;-65
2021/07/24 12:33:47;;;;;;;15.27;8.30;;;;;;;;;;3574637;40;20029;-66
2021/07/24 12:36:12;;;;;;;19.00;10.47;;;;;;;;;;3576617;40;20617;-66
2021/07/24 12:38:38;;;;;;;23.37;13.03;;;;;;;;;;3575346;40;20063;-66
2021/07/24 12:41:03;;;;;;;12.70;9.13;;;;;;;;;;3579344;40;20267;-67
2021/07/24 12:43:28;;;;;;;33.97;21.60;;;;;;;;;;3576312;40;20052;-66
2021/07/24 12:45:53;;;;;;;13.90;9.67;;;;;;;;;;3575761;40;20738;-67
2021/07/24 12:48:18;;;;;;;13.77;9.40;;;;;;;;;;3576359;40;20344;-61
2021/07/24 12:50:44;;;;;;;15.27;8.35;;;;;;;;;;3577318;40;20123;-60
2021/07/24 12:53:09;;;;;;;12.70;8.90;;;;;;;;;;3578008;40;20456;-60
2021/07/24 12:55:35;;;;;;;14.07;8.70;;;;;;;;;;3575379;40;20700;-60
2021/07/24 12:58:00;;;;;;;14.40;8.55;;;;;;;;;;3576786;40;20029;-59
2021/07/24 13:00:26;;;;;;;12.93;9.07;;;;;;;;;;3577285;40;20062;-62
2021/07/24 13:02:51;;;;;;;19.98;8.85;;;;;;;;;;3574700;40;20075;-66
2021/07/24 13:05:19;;;;;;;18.80;11.60;;;;;;;;;;3578758;40;20024;-60
2021/07/24 13:07:45;;;;;;;21.20;13.45;;;;;;;;;;3571099;40;20079;-59
2021/07/24 13:10:10;;;;;;;18.73;10.03;;;;;;;;;;3576636;40;20693;-59
2021/07/24 13:12:35;;;;;;;13.03;9.30;;;;;;;;;;3578988;40;20314;-60
2021/07/24 13:15:01;;;;;;;14.53;9.33;;;;;;;;;;3575557;40;20920;-60
2021/07/24 13:17:26;;;;;;;17.53;9.87;;;;;;;;;;3578276;40;20036;-60
2021/07/24 13:19:51;;;;;;;11.90;8.20;;;;;;;;;;3575248;40;20247;-59
2021/07/24 13:22:17;;;;;;;15.57;8.57;;;;;;;;;;3565920;40;20107;-60
2021/07/24 13:24:42;;;;;;;13.40;8.55;;;;;;;;;;3575146;40;20036;-60
2021/07/24 13:29:52;;;;;;;13.52;8.50;;;;;;;;;;3577473;40;20039;-67
2021/07/24 13:32:17;;;;;;;13.53;8.93;;;;;;;;;;3574214;40;20040;-59
2021/07/24 13:34:42;;;;;;;12.63;8.57;;;;;;;;;;3576754;40;20045;-60
2021/07/24 13:37:07;;;;;;;14.13;8.40;;;;;;;;;;3578001;40;20040;-60
2021/07/24 13:39:32;;;;;;;12.17;8.20;;;;;;;;;;3573896;40;20036;-60
2021/07/24 13:41:58;;;;;;;12.67;8.80;;;;;;;;;;3577791;40;20722;-59
2021/07/24 13:44:24;;;;;;;12.23;8.50;;;;;;;;;;3579563;40;20721;-60
2021/07/24 13:46:49;;;;;;;12.23;8.10;;;;;;;;;;3576807;40;20528;-59
2021/07/24 13:49:14;;;;;;;10.73;8.13;;;;;;;;;;3579157;40;20029;-60
2021/07/24 13:51:40;;;;;;;13.37;7.70;;;;;;;;;;3577310;40;20028;-60
2021/07/24 13:54:08;;;;;;;10.73;7.95;;;;;;;;;;3577638;40;20408;-61
2021/07/24 13:56:33;;;;;;;23.23;15.23;;;;;;;;;;3578339;40;20035;-60
2021/07/24 13:58:58;;;;;;;14.57;9.10;;;;;;;;;;3578764;40;20107;-60
2021/07/24 14:01:23;;;;;;;12.80;7.83;;;;;;;;;;3576244;40;20459;-60
2021/07/24 14:03:49;;;;;;;10.70;8.00;;;;;;;;;;3575336;40;20024;-60
2021/07/24 14:06:14;;;;;;;14.50;8.20;;;;;;;;;;3578434;40;20117;-60
2021/07/24 14:08:39;;;;;;;13.17;8.30;;;;;;;;;;3575203;40;20032;-60
2021/07/24 14:11:04;;;;;;;18.25;9.30;;;;;;;;;;3577337;40;20028;-60
2021/07/24 14:13:30;;;;;;;11.77;8.57;;;;;;;;;;3580110;40;20226;-60
2021/07/24 14:15:55;;;;;;;11.67;8.03;;;;;;;;;;3577391;40;20664;-60
2021/07/24 14:18:21;;;;;;;12.75;8.00;;;;;;;;;;3579394;40;20483;-59